createdAt,value
2019-04-16T00:02:07.548Z,99.90
2019-04-16T00:04:43.184Z,99.90
2019-04-16T00:07:28.312Z,99.90
2019-04-16T00:10:04.037Z,99.90
2019-04-16T00:12:50.677Z,99.90
2019-04-16T00:15:19.124Z,99.90
2019-04-16T00:17:48.168Z,99.90
2019-04-16T00:20:16.791Z,99.90
2019-04-16T00:22:55.466Z,99.90
2019-04-16T00:25:23.935Z,99.90
2019-04-16T00:27:52.384Z,99.90
2019-04-16T00:30:21.752Z,99.90
2019-04-16T00:32:50.292Z,99.90
2019-04-16T00:35:18.842Z,99.90
2019-04-16T00:37:51.421Z,99.90
2019-04-16T00:40:17.478Z,99.90
2019-04-16T00:42:46.008Z,99.90
2019-04-16T00:45:14.629Z,99.90
2019-04-16T00:47:43.071Z,99.90
2019-04-16T00:50:11.693Z,99.90
2019-04-16T00:52:40.140Z,99.90
2019-04-16T00:55:13.858Z,99.90
2019-04-16T00:57:39.032Z,99.90
2019-04-16T01:00:08.015Z,99.90
2019-04-16T01:02:36.496Z,99.90
2019-04-16T01:05:06.176Z,99.90
2019-04-16T01:07:34.660Z,99.90
2019-04-16T01:10:05.779Z,99.90
2019-04-16T01:12:34.248Z,99.90
2019-04-16T01:15:02.845Z,99.90
2019-04-16T01:17:33.408Z,99.90
2019-04-16T01:20:02.228Z,99.90
2019-04-16T01:22:30.770Z,99.90
2019-04-16T01:24:59.279Z,99.90
2019-04-16T01:27:32.572Z,99.90
2019-04-16T01:30:05.924Z,99.90
2019-04-16T01:32:43.412Z,99.90
2019-04-16T01:35:22.812Z,99.90
2019-04-16T01:38:09.173Z,99.90
2019-04-16T01:40:39.531Z,99.90
2019-04-16T01:43:08.000Z,99.90
2019-04-16T01:45:36.486Z,99.90
2019-04-16T01:48:07.844Z,99.90
2019-04-16T01:50:35.158Z,99.90
2019-04-16T01:53:03.622Z,99.90
2019-04-16T01:55:32.088Z,99.90
2019-04-16T01:58:03.798Z,99.90
2019-04-16T02:00:32.454Z,99.90
2019-04-16T02:03:02.552Z,99.90
2019-04-16T02:05:31.100Z,99.90
2019-04-16T02:08:00.344Z,99.90
2019-04-16T02:10:28.896Z,99.90
2019-04-16T02:12:57.352Z,99.90
2019-04-16T02:15:25.827Z,99.90
2019-04-16T02:17:55.404Z,99.90
2019-04-16T02:20:24.469Z,99.90
2019-04-16T02:22:52.940Z,99.90
2019-04-16T02:25:21.388Z,99.90
2019-04-16T02:27:49.863Z,99.90
2019-04-16T02:30:18.550Z,99.90
2019-04-16T02:32:47.026Z,99.90
2019-04-16T02:35:15.544Z,99.90
2019-04-16T02:37:44.008Z,99.90
2019-04-16T02:40:16.598Z,99.90
2019-04-16T02:42:42.809Z,99.90
2019-04-16T02:45:11.521Z,99.90
2019-04-16T02:47:42.173Z,99.90
2019-04-16T02:50:12.005Z,99.90
2019-04-16T02:52:42.093Z,99.90
2019-04-16T02:55:27.256Z,99.90
2019-04-16T02:58:09.631Z,99.90
2019-04-16T03:00:40.133Z,99.90
2019-04-16T03:03:10.216Z,99.90
2019-04-16T03:05:40.406Z,99.90
2019-04-16T03:08:08.925Z,99.90
2019-04-16T03:10:37.393Z,99.90
2019-04-16T03:13:05.865Z,99.90
2019-04-16T03:15:41.872Z,99.90
2019-04-16T03:18:14.925Z,99.90
2019-04-16T03:20:42.184Z,99.90
2019-04-16T03:23:10.888Z,99.90
2019-04-16T03:25:41.397Z,99.90
2019-04-16T03:28:10.148Z,99.90
2019-04-16T03:30:42.295Z,99.90
2019-04-16T03:33:12.817Z,99.90
2019-04-16T03:35:38.976Z,99.90
2019-04-16T03:38:07.613Z,99.90
2019-04-16T03:40:36.172Z,99.90
2019-04-16T03:43:04.857Z,99.90
2019-04-16T03:45:33.473Z,99.90
2019-04-16T03:48:01.940Z,99.90
2019-04-16T03:50:31.501Z,99.90
2019-04-16T03:53:00.640Z,99.90
2019-04-16T03:55:29.088Z,99.90
2019-04-16T03:57:57.572Z,99.90
2019-04-16T04:00:26.037Z,99.90
2019-04-16T04:02:55.344Z,99.90
2019-04-16T04:05:23.933Z,99.90
2019-04-16T04:07:55.079Z,99.90
2019-04-16T04:10:30.506Z,99.90
2019-04-16T04:12:52.782Z,99.90
2019-04-16T04:15:26.061Z,99.90
2019-04-16T04:17:51.421Z,99.90
2019-04-16T04:20:19.864Z,99.90
2019-04-16T04:22:48.337Z,99.90
2019-04-16T04:25:16.867Z,99.90
2019-04-16T04:27:46.746Z,99.90
2019-04-16T04:30:17.626Z,99.90
2019-04-16T04:32:47.617Z,99.90
2019-04-16T04:35:20.154Z,99.90
2019-04-16T04:37:46.515Z,99.90
2019-04-16T04:40:15.833Z,99.90
2019-04-16T04:42:45.181Z,99.90
2019-04-16T04:45:13.623Z,99.90
2019-04-16T04:47:42.112Z,99.90
2019-04-16T04:50:10.694Z,99.90
2019-04-16T04:52:39.218Z,99.90
2019-04-16T04:55:07.816Z,99.90
2019-04-16T04:57:36.288Z,99.90
2019-04-16T05:00:08.377Z,99.90
2019-04-16T05:02:37.066Z,99.90
2019-04-16T05:05:24.754Z,99.90
2019-04-16T05:07:50.501Z,99.90
2019-04-16T05:10:18.952Z,99.90
2019-04-16T05:12:47.402Z,99.90
2019-04-16T05:15:15.877Z,99.90
2019-04-16T05:17:44.404Z,99.90
2019-04-16T05:20:15.416Z,99.90
2019-04-16T05:22:43.108Z,99.90
2019-04-16T05:25:11.718Z,99.90
2019-04-16T05:27:41.058Z,99.90
2019-04-16T05:30:10.370Z,99.90
2019-04-16T05:32:38.881Z,99.90
2019-04-16T05:35:10.158Z,99.90
2019-04-16T05:37:37.584Z,99.90
2019-04-16T05:40:06.791Z,99.90
2019-04-16T05:42:35.231Z,99.90
2019-04-16T05:45:06.295Z,99.90
2019-04-16T05:47:34.951Z,99.90
2019-04-16T05:50:03.755Z,99.90
2019-04-16T05:52:35.513Z,99.90
2019-04-16T05:55:04.104Z,99.90
2019-04-16T05:57:34.246Z,99.90
2019-04-16T06:00:09.344Z,98.60
2019-04-16T06:02:41.472Z,97.20
2019-04-16T06:05:11.156Z,96.40
2019-04-16T06:07:39.628Z,93.50
2019-04-16T06:10:08.719Z,88.60
2019-04-16T06:12:41.420Z,87.20
2019-04-16T06:15:21.319Z,87.40
2019-04-16T06:17:49.104Z,86.60
2019-04-16T06:20:24.689Z,83.00
2019-04-16T06:22:54.800Z,76.50
2019-04-16T06:25:34.134Z,76.10
2019-04-16T06:28:12.948Z,72.20
2019-04-16T06:30:45.960Z,67.00
2019-04-16T06:33:18.973Z,70.80
2019-04-16T06:36:05.420Z,67.50
2019-04-16T06:38:38.260Z,64.50
2019-04-16T06:41:08.377Z,62.60
2019-04-16T06:43:41.303Z,59.00
2019-04-16T06:46:11.417Z,59.90
2019-04-16T06:48:50.093Z,57.50
2019-04-16T06:51:32.132Z,56.10
2019-04-16T06:54:11.406Z,55.80
2019-04-16T06:56:58.076Z,52.90
2019-04-16T06:59:30.431Z,53.70
2019-04-16T07:02:02.693Z,53.10
2019-04-16T07:04:35.528Z,52.60
2019-04-16T07:07:22.538Z,50.50
2019-04-16T07:09:56.703Z,52.90
2019-04-16T07:12:23.105Z,50.70
2019-04-16T07:14:51.651Z,50.50
2019-04-16T07:17:20.124Z,48.50
2019-04-16T07:19:48.576Z,50.80
2019-04-16T07:22:20.697Z,50.30
2019-04-16T07:24:48.928Z,46.90
2019-04-16T07:27:20.248Z,46.60
2019-04-16T07:29:51.672Z,46.20
2019-04-16T07:32:33.586Z,44.90
2019-04-16T07:35:03.682Z,44.80
2019-04-16T07:37:33.879Z,47.00
2019-04-16T07:40:10.015Z,47.10
2019-04-16T07:42:57.889Z,44.10
2019-04-16T07:45:42.728Z,47.10
2019-04-16T07:48:12.812Z,43.30
2019-04-16T07:51:01.589Z,43.50
2019-04-16T07:53:41.831Z,43.80
2019-04-16T07:56:20.857Z,45.20
2019-04-16T07:58:49.369Z,43.10
2019-04-16T08:01:17.840Z,42.50
2019-04-16T08:03:46.292Z,43.00
2019-04-16T08:06:14.764Z,38.90
2019-04-16T08:08:43.210Z,43.30
2019-04-16T08:11:11.689Z,43.10
2019-04-16T08:13:41.580Z,40.90
2019-04-16T08:16:10.044Z,41.90
2019-04-16T08:18:40.153Z,42.20
2019-04-16T08:21:11.804Z,42.10
2019-04-16T08:23:43.493Z,41.90
2019-04-16T08:26:13.635Z,37.40
2019-04-16T08:28:42.138Z,40.00
2019-04-16T08:31:12.880Z,39.50
2019-04-16T08:33:41.774Z,43.10
2019-04-16T08:36:10.217Z,42.10
2019-04-16T08:38:38.695Z,43.60
2019-04-16T08:41:07.305Z,43.60
2019-04-16T08:43:35.871Z,40.30
2019-04-16T08:46:04.413Z,42.80
2019-04-16T08:48:32.895Z,42.50
2019-04-16T08:51:05.192Z,43.70
2019-04-16T08:53:35.600Z,43.30
2019-04-16T08:56:04.432Z,47.60
2019-04-16T08:58:35.702Z,47.90
2019-04-16T09:01:03.504Z,45.60
2019-04-16T09:03:31.976Z,44.70
2019-04-16T09:06:03.956Z,46.30
2019-04-16T09:08:53.195Z,45.30
2019-04-16T09:11:23.760Z,49.50
2019-04-16T09:14:01.429Z,52.30
2019-04-16T09:16:31.587Z,53.60
2019-04-16T09:19:01.740Z,50.40
2019-04-16T09:21:30.180Z,47.30
2019-04-16T09:24:16.627Z,52.40
2019-04-16T09:26:56.441Z,52.20
2019-04-16T09:29:29.623Z,52.80
2019-04-16T09:32:15.953Z,49.70
2019-04-16T09:34:46.125Z,48.80
2019-04-16T09:37:18.672Z,48.30
2019-04-16T09:40:15.875Z,48.10
2019-04-16T09:42:34.892Z,48.50
2019-04-16T09:45:04.981Z,52.80
2019-04-16T09:47:34.228Z,51.60
2019-04-16T09:50:02.703Z,47.60
2019-04-16T09:52:31.175Z,46.30
2019-04-16T09:54:59.645Z,48.80
2019-04-16T09:57:30.927Z,50.20
2019-04-16T10:00:00.060Z,47.40
2019-04-16T10:02:30.179Z,51.60
2019-04-16T10:04:58.625Z,49.20
2019-04-16T10:07:27.099Z,48.40
2019-04-16T10:09:55.539Z,48.80
2019-04-16T10:12:24.030Z,47.60
2019-04-16T10:14:52.559Z,47.40
2019-04-16T10:17:21.021Z,48.20
2019-04-16T10:19:49.565Z,46.50
2019-04-16T10:22:18.145Z,46.70
2019-04-16T10:25:06.630Z,47.40
2019-04-16T10:27:36.779Z,46.00
2019-04-16T10:30:18.860Z,49.40
2019-04-16T10:32:47.499Z,48.50
2019-04-16T10:35:16.001Z,46.50
2019-04-16T10:37:44.555Z,47.00
2019-04-16T10:40:15.034Z,49.80
2019-04-16T10:43:01.852Z,51.80
2019-04-16T10:45:31.936Z,52.00
2019-04-16T10:48:02.048Z,52.30
2019-04-16T10:50:37.681Z,52.70
2019-04-16T10:53:24.277Z,51.50
2019-04-16T10:56:25.095Z,47.90
2019-04-16T10:58:55.238Z,51.50
2019-04-16T11:01:35.189Z,51.00
2019-04-16T11:04:07.814Z,49.30
2019-04-16T11:06:40.160Z,47.00
2019-04-16T11:09:08.785Z,54.40
2019-04-16T11:11:37.317Z,50.30
2019-04-16T11:14:05.904Z,47.90
2019-04-16T11:16:35.978Z,46.70
2019-04-16T11:19:04.877Z,47.90
2019-04-16T11:21:33.448Z,47.90
2019-04-16T11:24:02.010Z,49.80
2019-04-16T11:26:30.489Z,49.60
2019-04-16T11:28:58.997Z,48.80
2019-04-16T11:31:27.635Z,52.20
2019-04-16T11:33:56.176Z,48.10
2019-04-16T11:36:24.728Z,46.50
2019-04-16T11:38:53.201Z,50.30
2019-04-16T11:41:21.808Z,52.40
2019-04-16T11:43:50.255Z,50.40
2019-04-16T11:46:18.759Z,49.70
2019-04-16T11:48:50.085Z,50.40
2019-04-16T11:51:17.484Z,51.10
2019-04-16T11:53:46.019Z,51.30
2019-04-16T11:56:14.556Z,49.50
2019-04-16T11:58:46.412Z,46.70
2019-04-16T12:01:23.055Z,45.00
2019-04-16T12:03:58.836Z,49.10
2019-04-16T12:06:29.071Z,47.90
2019-04-16T12:08:59.232Z,48.60
2019-04-16T12:11:32.187Z,47.90
2019-04-16T12:14:04.029Z,50.60
2019-04-16T12:16:34.124Z,50.30
2019-04-16T12:19:20.854Z,48.40
2019-04-16T12:22:07.497Z,52.00
2019-04-16T12:24:55.880Z,48.40
2019-04-16T12:27:39.282Z,48.90
2019-04-16T12:30:10.123Z,52.50
2019-04-16T12:32:40.437Z,50.70
2019-04-16T12:35:27.252Z,49.20
2019-04-16T12:38:06.306Z,48.70
2019-04-16T12:40:37.734Z,50.70
2019-04-16T12:43:07.928Z,52.70
2019-04-16T12:45:38.146Z,51.90
2019-04-16T12:48:08.332Z,50.00
2019-04-16T12:50:56.829Z,50.80
2019-04-16T12:53:36.113Z,49.40
2019-04-16T12:56:10.590Z,51.60
2019-04-16T12:58:58.705Z,48.50
2019-04-16T13:01:45.349Z,50.00
2019-04-16T13:04:31.641Z,49.80
2019-04-16T13:07:04.572Z,49.10
2019-04-16T13:09:40.556Z,48.50
2019-04-16T13:12:22.808Z,49.80
2019-04-16T13:15:09.210Z,48.70
2019-04-16T13:17:42.276Z,49.10
2019-04-16T13:20:16.566Z,51.80
2019-04-16T13:22:46.686Z,48.60
2019-04-16T13:25:19.496Z,48.10
2019-04-16T13:27:50.851Z,49.90
2019-04-16T13:30:18.840Z,49.90
2019-04-16T13:32:47.288Z,49.20
2019-04-16T13:35:15.768Z,48.10
2019-04-16T13:37:44.249Z,47.80
2019-04-16T13:40:16.993Z,49.50
2019-04-16T13:42:45.484Z,48.70
2019-04-16T13:45:21.729Z,50.60
2019-04-16T13:47:54.412Z,49.10
2019-04-16T13:50:21.128Z,50.20
2019-04-16T13:52:52.041Z,48.90
2019-04-16T13:55:38.155Z,48.70
2019-04-16T13:58:06.925Z,50.60
2019-04-16T14:00:39.903Z,50.30
2019-04-16T14:03:20.812Z,48.90
2019-04-16T14:05:49.208Z,48.90
2019-04-16T14:08:17.677Z,47.30
2019-04-16T14:10:46.124Z,49.30
2019-04-16T14:13:14.596Z,50.10
2019-04-16T14:15:44.862Z,52.60
2019-04-16T14:18:13.247Z,51.10
2019-04-16T14:20:41.688Z,48.60
2019-04-16T14:23:10.219Z,47.40
2019-04-16T14:25:38.670Z,47.60
2019-04-16T14:28:07.136Z,48.60
2019-04-16T14:30:39.576Z,49.10
2019-04-16T14:33:07.708Z,46.60
2019-04-16T14:35:39.939Z,47.70
2019-04-16T14:38:06.529Z,49.10
2019-04-16T14:40:35.033Z,47.40
2019-04-16T14:43:03.504Z,48.50
2019-04-16T14:45:57.112Z,48.20
2019-04-16T14:48:13.164Z,49.60
2019-04-16T14:50:41.683Z,48.10
2019-04-16T14:53:10.233Z,48.10
2019-04-16T14:55:58.722Z,48.00
2019-04-16T14:58:32.716Z,47.60
2019-04-16T15:01:02.833Z,47.10
2019-04-16T15:03:35.608Z,48.40
2019-04-16T15:06:11.468Z,47.50
2019-04-16T15:08:57.709Z,47.60
2019-04-16T15:11:44.190Z,48.90
2019-04-16T15:14:14.373Z,47.20
2019-04-16T15:16:44.457Z,48.20
2019-04-16T15:19:23.910Z,47.40
2019-04-16T15:22:14.121Z,48.40
2019-04-16T15:24:45.404Z,48.70
2019-04-16T15:27:32.588Z,47.70
2019-04-16T15:30:05.511Z,47.20
2019-04-16T15:32:41.684Z,47.00
2019-04-16T15:35:14.849Z,47.10
2019-04-16T15:38:00.815Z,47.80
2019-04-16T15:40:39.174Z,48.50
2019-04-16T15:43:19.295Z,49.10
2019-04-16T15:45:55.059Z,49.10
2019-04-16T15:48:37.138Z,48.30
2019-04-16T15:51:23.852Z,48.40
2019-04-16T15:54:09.294Z,48.20
2019-04-16T15:56:41.914Z,49.10
2019-04-16T15:59:12.020Z,49.40
2019-04-16T16:01:47.919Z,48.70
2019-04-16T16:04:18.027Z,49.40
2019-04-16T16:07:01.304Z,50.30
2019-04-16T16:09:47.746Z,50.30
2019-04-16T16:12:22.046Z,50.00
2019-04-16T16:14:48.027Z,52.10
2019-04-16T16:17:16.522Z,50.20
2019-04-16T16:19:46.681Z,50.80
2019-04-16T16:22:15.157Z,49.50
2019-04-16T16:24:43.610Z,50.40
2019-04-16T16:27:12.055Z,49.50
2019-04-16T16:29:40.525Z,50.20
2019-04-16T16:32:08.984Z,49.70
2019-04-16T16:34:37.431Z,49.20
2019-04-16T16:37:05.904Z,49.70
2019-04-16T16:39:34.354Z,49.50
2019-04-16T16:42:02.844Z,51.30
2019-04-16T16:44:31.339Z,52.60
2019-04-16T16:47:13.244Z,50.30
2019-04-16T16:49:41.692Z,50.80
2019-04-16T16:52:11.801Z,50.50
2019-04-16T16:54:41.649Z,49.80
2019-04-16T16:57:11.769Z,49.80
2019-04-16T16:59:58.283Z,51.00
2019-04-16T17:02:37.157Z,50.80
2019-04-16T17:05:08.704Z,51.60
2019-04-16T17:07:37.182Z,50.70
2019-04-16T17:10:06.797Z,50.80
2019-04-16T17:12:35.322Z,50.70
2019-04-16T17:15:08.185Z,51.40
2019-04-16T17:17:35.172Z,51.20
2019-04-16T17:20:03.819Z,51.70
2019-04-16T17:22:32.262Z,51.20
2019-04-16T17:25:01.235Z,51.50
2019-04-16T17:27:29.708Z,52.10
2019-04-16T17:29:58.198Z,52.60
2019-04-16T17:32:26.761Z,53.20
2019-04-16T17:34:55.515Z,52.50
2019-04-16T17:37:27.803Z,52.60
2019-04-16T17:39:55.283Z,52.80
2019-04-16T17:42:28.473Z,53.30
2019-04-16T17:45:16.564Z,53.70
2019-04-16T17:47:55.754Z,54.20
2019-04-16T17:50:24.281Z,54.40
2019-04-16T17:52:57.028Z,54.70
2019-04-16T17:55:27.140Z,55.40
2019-04-16T17:57:57.258Z,55.50
2019-04-16T18:00:39.190Z,55.20
2019-04-16T18:03:27.656Z,55.00
2019-04-16T18:06:12.800Z,56.70
2019-04-16T18:08:55.141Z,56.20
2019-04-16T18:11:25.248Z,56.30
2019-04-16T18:14:06.664Z,56.40
2019-04-16T18:16:41.812Z,56.90
2019-04-16T18:19:29.504Z,56.50
2019-04-16T18:22:04.719Z,56.80
2019-04-16T18:24:49.772Z,56.70
2019-04-16T18:27:28.158Z,58.00
2019-04-16T18:30:05.201Z,60.90
2019-04-16T18:32:40.878Z,60.00
2019-04-16T18:35:23.269Z,60.10
2019-04-16T18:37:56.109Z,60.40
2019-04-16T18:40:42.272Z,60.20
2019-04-16T18:43:30.684Z,59.60
2019-04-16T18:46:03.561Z,59.80
2019-04-16T18:48:33.737Z,60.60
2019-04-16T18:51:02.180Z,62.00
2019-04-16T18:53:30.652Z,61.40
2019-04-16T18:55:59.101Z,62.50
2019-04-16T18:58:27.577Z,61.40
2019-04-16T19:00:57.653Z,61.10
2019-04-16T19:03:26.131Z,61.40
2019-04-16T19:05:54.572Z,63.50
2019-04-16T19:08:23.036Z,64.40
2019-04-16T19:10:51.549Z,66.60
2019-04-16T19:13:20.271Z,65.20
2019-04-16T19:15:48.896Z,66.00
2019-04-16T19:18:20.021Z,64.20
2019-04-16T19:20:51.482Z,65.80
2019-04-16T19:23:21.300Z,66.30
2019-04-16T19:25:48.020Z,66.20
2019-04-16T19:28:20.055Z,68.20
2019-04-16T19:30:46.681Z,66.70
2019-04-16T19:33:15.124Z,66.80
2019-04-16T19:35:43.665Z,70.00
2019-04-16T19:38:12.109Z,73.40
2019-04-16T19:40:40.636Z,73.10
2019-04-16T19:43:09.193Z,72.00
2019-04-16T19:45:40.585Z,69.80
2019-04-16T19:48:07.824Z,73.30
2019-04-16T19:50:37.206Z,77.80
2019-04-16T19:53:05.817Z,81.30
2019-04-16T19:55:34.284Z,80.30
2019-04-16T19:58:02.754Z,82.50
2019-04-16T20:00:31.197Z,84.80
2019-04-16T20:03:01.591Z,85.30
2019-04-16T20:05:30.034Z,85.70
2019-04-16T20:07:58.500Z,81.50
2019-04-16T20:10:26.947Z,86.40
2019-04-16T20:12:57.875Z,88.10
2019-04-16T20:15:25.743Z,90.60
2019-04-16T20:17:54.184Z,90.60
2019-04-16T20:20:22.640Z,89.80
2019-04-16T20:22:51.085Z,92.10
2019-04-16T20:25:19.527Z,92.80
2019-04-16T20:27:47.996Z,92.30
2019-04-16T20:30:16.436Z,91.50
2019-04-16T20:32:44.896Z,93.70
2019-04-16T20:35:17.875Z,93.60
2019-04-16T20:37:43.581Z,93.30
2019-04-16T20:40:14.699Z,95.30
2019-04-16T20:42:42.257Z,94.90
2019-04-16T20:45:11.363Z,96.70
2019-04-16T20:47:40.182Z,95.40
2019-04-16T20:50:09.084Z,95.40
2019-04-16T20:52:37.560Z,95.80
2019-04-16T20:55:07.445Z,96.90
2019-04-16T20:57:38.953Z,96.90
2019-04-16T21:00:10.859Z,97.60
2019-04-16T21:02:38.568Z,99.50
2019-04-16T21:05:21.421Z,98.90
2019-04-16T21:07:37.916Z,99.40
2019-04-16T21:10:07.631Z,99.90
2019-04-16T21:12:36.072Z,99.90
2019-04-16T21:15:05.584Z,99.90
2019-04-16T21:17:38.145Z,99.90
2019-04-16T21:20:05.974Z,99.90
2019-04-16T21:22:34.503Z,99.90
2019-04-16T21:25:02.954Z,99.90
2019-04-16T21:27:33.028Z,99.90
2019-04-16T21:30:03.085Z,99.90
2019-04-16T21:32:45.608Z,99.90
2019-04-16T21:35:28.715Z,99.90
2019-04-16T21:38:14.201Z,99.90
2019-04-16T21:40:42.676Z,99.90
2019-04-16T21:43:11.116Z,99.90
2019-04-16T21:45:39.631Z,99.90
2019-04-16T21:48:08.100Z,99.90
2019-04-16T21:50:36.704Z,99.90
2019-04-16T21:53:05.181Z,99.90
2019-04-16T21:55:35.492Z,99.90
2019-04-16T21:58:03.816Z,99.90
2019-04-16T22:00:39.416Z,99.90
2019-04-16T22:03:15.359Z,99.90
2019-04-16T22:05:48.107Z,99.90
2019-04-16T22:08:13.985Z,99.90
2019-04-16T22:10:42.449Z,99.90
2019-04-16T22:13:10.887Z,99.90
2019-04-16T22:15:39.357Z,99.90
2019-04-16T22:18:09.554Z,99.90
2019-04-16T22:20:37.992Z,99.90
2019-04-16T22:23:06.435Z,99.90
2019-04-16T22:25:34.887Z,99.90
2019-04-16T22:28:03.372Z,99.90
2019-04-16T22:30:31.836Z,99.90
2019-04-16T22:33:04.954Z,99.90
2019-04-16T22:35:31.920Z,99.90
2019-04-16T22:38:00.593Z,99.90
2019-04-16T22:40:51.601Z,99.90
2019-04-16T22:43:35.667Z,99.90
2019-04-16T22:46:08.686Z,99.90
2019-04-16T22:48:37.122Z,99.90
2019-04-16T22:51:09.687Z,99.90
2019-04-16T22:53:35.776Z,99.90
2019-04-16T22:56:04.250Z,99.90
2019-04-16T22:58:48.840Z,99.90
2019-04-16T23:01:19.501Z,99.90
2019-04-16T23:03:49.679Z,99.90
2019-04-16T23:06:18.133Z,99.90
2019-04-16T23:08:46.604Z,99.90
2019-04-16T23:11:15.073Z,99.90
2019-04-16T23:13:43.521Z,99.90
2019-04-16T23:16:11.989Z,99.90
2019-04-16T23:18:40.573Z,99.90
2019-04-16T23:21:10.020Z,99.90
2019-04-16T23:23:39.248Z,99.90
2019-04-16T23:26:07.720Z,99.90
2019-04-16T23:28:36.161Z,99.90
2019-04-16T23:31:04.701Z,99.90
2019-04-16T23:33:33.581Z,99.90
2019-04-16T23:36:03.472Z,99.90
2019-04-16T23:38:32.504Z,99.90
2019-04-16T23:41:02.412Z,99.90
2019-04-16T23:43:41.279Z,99.90
2019-04-16T23:46:14.048Z,99.90
2019-04-16T23:48:56.336Z,99.90
2019-04-16T23:51:28.945Z,99.90
2019-04-16T23:54:07.978Z,99.90
2019-04-16T23:56:38.978Z,99.90
2019-04-16T23:59:12.008Z,99.90
